sensor_id;sensor_type;location;lat;lon;timestamp;pressure;altitude;pressure_sealevel;temperature;humidity
75886;BME280;64561;44.018;10.144;2023-11-19T00:00:10;102228.47;;;8.99;99.08
75886;BME280;64561;44.018;10.144;2023-11-19T00:02:41;102235.97;;;8.96;99.53
75886;BME280;64561;44.018;10.144;2023-11-19T00:05:11;102228.00;;;8.90;100.00
75886;BME280;64561;44.018;10.144;2023-11-19T00:07:40;102232.47;;;8.94;100.00
75886;BME280;64561;44.018;10.144;2023-11-19T00:10:14;102236.28;;;8.86;99.62
75886;BME280;64561;44.018;10.144;2023-11-19T00:12:47;102235.41;;;8.85;100.00
75886;BME280;64561;44.018;10.144;2023-11-19T00:15:16;102230.22;;;8.84;100.00
75886;BME280;64561;44.018;10.144;2023-11-19T00:17:46;102230.69;;;8.77;99.95
75886;BME280;64561;44.018;10.144;2023-11-19T00:20:17;102229.56;;;8.72;100.00
75886;BME280;64561;44.018;10.144;2023-11-19T00:22:45;102231.34;;;8.73;100.00
75886;BME280;64561;44.018;10.144;2023-11-19T00:25:20;102226.41;;;8.76;100.00
75886;BME280;64561;44.018;10.144;2023-11-19T00:27:50;102229.13;;;8.79;100.00
75886;BME280;64561;44.018;10.144;2023-11-19T00:30:18;102228.47;;;8.83;100.00
75886;BME280;64561;44.018;10.144;2023-11-19T00:32:45;102234.38;;;8.82;99.94
75886;BME280;64561;44.018;10.144;2023-11-19T00:35:12;102241.78;;;8.77;100.00
75886;BME280;64561;44.018;10.144;2023-11-19T00:37:43;102239.53;;;8.67;100.00
75886;BME280;64561;44.018;10.144;2023-11-19T00:40:13;102244.19;;;8.59;100.00
75886;BME280;64561;44.018;10.144;2023-11-19T00:42:44;102246.59;;;8.56;100.00
75886;BME280;64561;44.018;10.144;2023-11-19T00:45:11;102238.22;;;8.59;100.00
75886;BME280;64561;44.018;10.144;2023-11-19T00:47:40;102237.53;;;8.61;100.00
75886;BME280;64561;44.018;10.144;2023-11-19T00:50:08;102239.28;;;8.62;100.00
75886;BME280;64561;44.018;10.144;2023-11-19T00:52:39;102247.25;;;8.68;100.00
75886;BME280;64561;44.018;10.144;2023-11-19T00:55:08;102255.44;;;8.63;100.00
75886;BME280;64561;44.018;10.144;2023-11-19T00:57:36;102262.06;;;8.59;100.00
75886;BME280;64561;44.018;10.144;2023-11-19T01:00:07;102258.53;;;8.57;100.00
75886;BME280;64561;44.018;10.144;2023-11-19T01:02:47;102257.22;;;8.64;100.00
75886;BME280;64561;44.018;10.144;2023-11-19T01:05:18;102243.94;;;8.69;100.00
75886;BME280;64561;44.018;10.144;2023-11-19T01:07:51;102248.72;;;8.80;100.00
75886;BME280;64561;44.018;10.144;2023-11-19T01:10:21;102248.97;;;8.84;100.00
75886;BME280;64561;44.018;10.144;2023-11-19T01:12:49;102252.59;;;8.88;100.00
75886;BME280;64561;44.018;10.144;2023-11-19T01:15:16;102252.75;;;8.91;100.00
75886;BME280;64561;44.018;10.144;2023-11-19T01:17:46;102254.97;;;8.85;100.00
75886;BME280;64561;44.018;10.144;2023-11-19T01:20:16;102247.84;;;8.79;100.00
75886;BME280;64561;44.018;10.144;2023-11-19T01:22:44;102240.75;;;8.74;100.00
75886;BME280;64561;44.018;10.144;2023-11-19T01:25:11;102239.44;;;8.65;100.00
75886;BME280;64561;44.018;10.144;2023-11-19T01:27:39;102238.91;;;8.71;100.00
75886;BME280;64561;44.018;10.144;2023-11-19T01:30:06;102243.94;;;8.69;100.00
75886;BME280;64561;44.018;10.144;2023-11-19T01:32:36;102238.03;;;8.70;100.00
75886;BME280;64561;44.018;10.144;2023-11-19T01:35:03;102223.84;;;8.76;100.00
75886;BME280;64561;44.018;10.144;2023-11-19T01:37:31;102224.47;;;8.72;100.00
75886;BME280;64561;44.018;10.144;2023-11-19T01:39:59;102213.16;;;8.66;100.00
75886;BME280;64561;44.018;10.144;2023-11-19T01:42:26;102228.03;;;8.59;100.00
75886;BME280;64561;44.018;10.144;2023-11-19T01:45:00;102234.53;;;8.54;100.00
75886;BME280;64561;44.018;10.144;2023-11-19T01:47:30;102221.25;;;8.59;100.00
75886;BME280;64561;44.018;10.144;2023-11-19T01:49:59;102213.97;;;8.51;100.00
75886;BME280;64561;44.018;10.144;2023-11-19T01:52:26;102220.09;;;8.54;100.00
75886;BME280;64561;44.018;10.144;2023-11-19T01:54:54;102225.53;;;8.60;100.00
75886;BME280;64561;44.018;10.144;2023-11-19T01:57:22;102222.72;;;8.70;100.00
75886;BME280;64561;44.018;10.144;2023-11-19T01:59:51;102221.13;;;8.73;100.00
75886;BME280;64561;44.018;10.144;2023-11-19T02:02:19;102219.44;;;8.73;100.00
75886;BME280;64561;44.018;10.144;2023-11-19T02:04:49;102220.06;;;8.69;100.00
75886;BME280;64561;44.018;10.144;2023-11-19T02:07:18;102216.94;;;8.58;100.00
75886;BME280;64561;44.018;10.144;2023-11-19T02:09:45;102229.38;;;8.52;100.00
75886;BME280;64561;44.018;10.144;2023-11-19T02:12:12;102223.94;;;8.46;100.00
75886;BME280;64561;44.018;10.144;2023-11-19T02:14:40;102218.66;;;8.43;100.00
75886;BME280;64561;44.018;10.144;2023-11-19T02:17:27;102217.69;;;8.41;100.00
75886;BME280;64561;44.018;10.144;2023-11-19T02:19:55;102204.28;;;8.45;100.00
75886;BME280;64561;44.018;10.144;2023-11-19T02:22:22;102201.47;;;8.55;100.00
75886;BME280;64561;44.018;10.144;2023-11-19T02:24:51;102195.72;;;8.59;100.00
75886;BME280;64561;44.018;10.144;2023-11-19T02:30:18;102180.84;;;8.67;100.00
75886;BME280;64561;44.018;10.144;2023-11-19T02:32:45;102177.16;;;8.62;100.00
75886;BME280;64561;44.018;10.144;2023-11-19T02:35:13;102182.09;;;8.59;100.00
75886;BME280;64561;44.018;10.144;2023-11-19T02:37:40;102177.88;;;8.59;100.00
75886;BME280;64561;44.018;10.144;2023-11-19T02:40:08;102171.63;;;8.54;100.00
75886;BME280;64561;44.018;10.144;2023-11-19T02:42:36;102171.47;;;8.51;100.00
75886;BME280;64561;44.018;10.144;2023-11-19T02:45:03;102169.50;;;8.45;100.00
75886;BME280;64561;44.018;10.144;2023-11-19T02:47:34;102174.66;;;8.47;100.00
75886;BME280;64561;44.018;10.144;2023-11-19T02:50:01;102169.56;;;8.47;100.00
75886;BME280;64561;44.018;10.144;2023-11-19T02:52:30;102169.09;;;8.54;100.00
75886;BME280;64561;44.018;10.144;2023-11-19T02:55:02;102169.41;;;8.60;100.00
75886;BME280;64561;44.018;10.144;2023-11-19T02:57:32;102162.66;;;8.61;100.00
75886;BME280;64561;44.018;10.144;2023-11-19T03:00:00;102158.34;;;8.60;100.00
75886;BME280;64561;44.018;10.144;2023-11-19T03:02:30;102160.13;;;8.61;100.00
75886;BME280;64561;44.018;10.144;2023-11-19T03:05:01;102164.25;;;8.59;100.00
75886;BME280;64561;44.018;10.144;2023-11-19T03:07:31;102150.84;;;8.63;100.00
75886;BME280;64561;44.018;10.144;2023-11-19T03:09:58;102150.63;;;8.58;100.00
75886;BME280;64561;44.018;10.144;2023-11-19T03:12:25;102140.41;;;8.58;100.00
75886;BME280;64561;44.018;10.144;2023-11-19T03:14:54;102142.00;;;8.56;100.00
75886;BME280;64561;44.018;10.144;2023-11-19T03:17:22;102127.94;;;8.48;100.00
75886;BME280;64561;44.018;10.144;2023-11-19T03:19:52;102137.59;;;8.54;100.00
75886;BME280;64561;44.018;10.144;2023-11-19T03:22:19;102145.81;;;8.48;100.00
75886;BME280;64561;44.018;10.144;2023-11-19T03:24:50;102138.16;;;8.48;100.00
75886;BME280;64561;44.018;10.144;2023-11-19T03:27:18;102139.66;;;8.44;100.00
75886;BME280;64561;44.018;10.144;2023-11-19T03:29:45;102140.97;;;8.38;100.00
75886;BME280;64561;44.018;10.144;2023-11-19T03:32:12;102145.22;;;8.37;100.00
75886;BME280;64561;44.018;10.144;2023-11-19T03:34:39;102133.47;;;8.39;100.00
75886;BME280;64561;44.018;10.144;2023-11-19T03:37:07;102150.66;;;8.43;100.00
75886;BME280;64561;44.018;10.144;2023-11-19T03:39:35;102146.44;;;8.44;100.00
75886;BME280;64561;44.018;10.144;2023-11-19T03:42:03;102138.78;;;8.44;100.00
75886;BME280;64561;44.018;10.144;2023-11-19T03:44:30;102137.28;;;8.47;100.00
75886;BME280;64561;44.018;10.144;2023-11-19T03:46:57;102130.44;;;8.46;100.00
75886;BME280;64561;44.018;10.144;2023-11-19T03:49:24;102133.22;;;8.51;100.00
75886;BME280;64561;44.018;10.144;2023-11-19T03:51:51;102129.88;;;8.52;100.00
75886;BME280;64561;44.018;10.144;2023-11-19T03:54:18;102125.00;;;8.57;100.00
75886;BME280;64561;44.018;10.144;2023-11-19T03:56:46;102133.38;;;8.54;100.00
75886;BME280;64561;44.018;10.144;2023-11-19T03:59:13;102125.56;;;8.51;100.00
75886;BME280;64561;44.018;10.144;2023-11-19T04:01:41;102129.63;;;8.47;100.00
75886;BME280;64561;44.018;10.144;2023-11-19T04:04:09;102126.03;;;8.44;100.00
75886;BME280;64561;44.018;10.144;2023-11-19T04:06:36;102127.63;;;8.42;100.00
75886;BME280;64561;44.018;10.144;2023-11-19T04:09:03;102133.63;;;8.42;100.00
75886;BME280;64561;44.018;10.144;2023-11-19T04:11:30;102129.63;;;8.47;100.00
75886;BME280;64561;44.018;10.144;2023-11-19T04:13:58;102135.84;;;8.53;100.00
75886;BME280;64561;44.018;10.144;2023-11-19T04:16:26;102131.78;;;8.56;100.00
75886;BME280;64561;44.018;10.144;2023-11-19T04:18:55;102127.66;;;8.58;100.00
75886;BME280;64561;44.018;10.144;2023-11-19T04:21:25;102120.16;;;8.61;100.00
75886;BME280;64561;44.018;10.144;2023-11-19T04:23:52;102124.56;;;8.64;100.00
75886;BME280;64561;44.018;10.144;2023-11-19T04:26:19;102122.06;;;8.65;100.00
75886;BME280;64561;44.018;10.144;2023-11-19T04:28:46;102119.63;;;8.67;100.00
75886;BME280;64561;44.018;10.144;2023-11-19T04:31:13;102118.09;;;8.70;100.00
75886;BME280;64561;44.018;10.144;2023-11-19T04:33:40;102114.84;;;8.73;100.00
75886;BME280;64561;44.018;10.144;2023-11-19T04:36:08;102114.66;;;8.70;100.00
75886;BME280;64561;44.018;10.144;2023-11-19T04:38:35;102109.16;;;8.62;100.00
75886;BME280;64561;44.018;10.144;2023-11-19T04:41:02;102115.06;;;8.61;100.00
75886;BME280;64561;44.018;10.144;2023-11-19T04:43:32;102104.75;;;8.60;100.00
75886;BME280;64561;44.018;10.144;2023-11-19T04:45:59;102102.31;;;8.61;100.00
75886;BME280;64561;44.018;10.144;2023-11-19T04:48:26;102107.78;;;8.69;100.00
75886;BME280;64561;44.018;10.144;2023-11-19T04:50:53;102109.72;;;8.73;100.00
75886;BME280;64561;44.018;10.144;2023-11-19T04:53:21;102104.22;;;8.82;100.00
75886;BME280;64561;44.018;10.144;2023-11-19T04:55:48;102095.81;;;8.84;100.00
75886;BME280;64561;44.018;10.144;2023-11-19T04:58:15;102091.31;;;8.79;100.00
75886;BME280;64561;44.018;10.144;2023-11-19T05:00:43;102092.81;;;8.75;100.00
75886;BME280;64561;44.018;10.144;2023-11-19T05:03:10;102096.16;;;8.74;100.00
75886;BME280;64561;44.018;10.144;2023-11-19T05:05:37;102098.06;;;8.78;100.00
75886;BME280;64561;44.018;10.144;2023-11-19T05:08:04;102096.88;;;8.88;100.00
75886;BME280;64561;44.018;10.144;2023-11-19T05:10:32;102090.47;;;8.96;100.00
75886;BME280;64561;44.018;10.144;2023-11-19T05:12:59;102079.94;;;8.90;100.00
75886;BME280;64561;44.018;10.144;2023-11-19T05:15:26;102080.59;;;8.86;100.00
75886;BME280;64561;44.018;10.144;2023-11-19T05:17:53;102084.28;;;8.91;100.00
75886;BME280;64561;44.018;10.144;2023-11-19T05:20:20;102084.19;;;8.89;100.00
75886;BME280;64561;44.018;10.144;2023-11-19T05:22:48;102079.03;;;8.88;100.00
75886;BME280;64561;44.018;10.144;2023-11-19T05:25:20;102079.78;;;8.87;100.00
75886;BME280;64561;44.018;10.144;2023-11-19T05:27:47;102081.31;;;8.83;100.00
75886;BME280;64561;44.018;10.144;2023-11-19T05:30:14;102082.59;;;8.75;100.00
75886;BME280;64561;44.018;10.144;2023-11-19T05:32:42;102087.78;;;8.77;100.00
75886;BME280;64561;44.018;10.144;2023-11-19T05:35:11;102080.13;;;8.77;100.00
75886;BME280;64561;44.018;10.144;2023-11-19T05:37:38;102078.22;;;8.73;100.00
75886;BME280;64561;44.018;10.144;2023-11-19T05:40:06;102085.25;;;8.77;100.00
75886;BME280;64561;44.018;10.144;2023-11-19T05:42:41;102083.66;;;8.79;100.00
75886;BME280;64561;44.018;10.144;2023-11-19T05:45:11;102079.56;;;8.82;100.00
75886;BME280;64561;44.018;10.144;2023-11-19T05:47:38;102073.75;;;8.85;100.00
75886;BME280;64561;44.018;10.144;2023-11-19T05:50:06;102073.09;;;8.89;100.00
75886;BME280;64561;44.018;10.144;2023-11-19T05:52:33;102078.31;;;8.90;100.00
75886;BME280;64561;44.018;10.144;2023-11-19T05:55:01;102083.56;;;8.93;100.00
75886;BME280;64561;44.018;10.144;2023-11-19T05:57:31;102074.94;;;8.91;100.00
75886;BME280;64561;44.018;10.144;2023-11-19T06:00:13;102068.97;;;8.91;100.00
75886;BME280;64561;44.018;10.144;2023-11-19T06:02:42;102072.69;;;8.98;100.00
75886;BME280;64561;44.018;10.144;2023-11-19T06:05:09;102073.81;;;9.03;100.00
75886;BME280;64561;44.018;10.144;2023-11-19T06:07:36;102078.41;;;9.10;100.00
75886;BME280;64561;44.018;10.144;2023-11-19T06:10:06;102066.38;;;9.07;100.00
75886;BME280;64561;44.018;10.144;2023-11-19T06:12:34;102068.13;;;9.08;100.00
75886;BME280;64561;44.018;10.144;2023-11-19T06:15:05;102073.16;;;9.07;100.00
75886;BME280;64561;44.018;10.144;2023-11-19T06:17:33;102079.47;;;8.97;100.00
75886;BME280;64561;44.018;10.144;2023-11-19T06:20:00;102066.31;;;8.89;100.00
75886;BME280;64561;44.018;10.144;2023-11-19T06:22:29;102062.91;;;8.89;100.00
75886;BME280;64561;44.018;10.144;2023-11-19T06:24:56;102065.59;;;8.92;100.00
75886;BME280;64561;44.018;10.144;2023-11-19T06:27:23;102074.06;;;8.91;100.00
75886;BME280;64561;44.018;10.144;2023-11-19T06:29:50;102065.13;;;8.83;100.00
75886;BME280;64561;44.018;10.144;2023-11-19T06:32:18;102074.94;;;8.75;100.00
75886;BME280;64561;44.018;10.144;2023-11-19T06:34:45;102071.28;;;8.70;100.00
75886;BME280;64561;44.018;10.144;2023-11-19T06:37:12;102071.66;;;8.78;100.00
75886;BME280;64561;44.018;10.144;2023-11-19T06:39:39;102067.59;;;8.81;100.00
75886;BME280;64561;44.018;10.144;2023-11-19T06:42:07;102065.59;;;8.92;100.00
75886;BME280;64561;44.018;10.144;2023-11-19T06:44:34;102062.38;;;8.96;100.00
75886;BME280;64561;44.018;10.144;2023-11-19T06:47:01;102058.03;;;8.93;100.00
75886;BME280;64561;44.018;10.144;2023-11-19T06:49:28;102072.75;;;8.99;100.00
75886;BME280;64561;44.018;10.144;2023-11-19T06:51:55;102055.41;;;8.92;100.00
75886;BME280;64561;44.018;10.144;2023-11-19T06:54:23;102071.66;;;8.94;100.00
75886;BME280;64561;44.018;10.144;2023-11-19T06:56:50;102072.59;;;8.96;100.00
75886;BME280;64561;44.018;10.144;2023-11-19T06:59:18;102073.72;;;9.01;100.00
75886;BME280;64561;44.018;10.144;2023-11-19T07:01:45;102062.38;;;8.96;100.00
75886;BME280;64561;44.018;10.144;2023-11-19T07:04:13;102075.47;;;9.02;100.00
75886;BME280;64561;44.018;10.144;2023-11-19T07:06:40;102060.44;;;9.08;100.00
75886;BME280;64561;44.018;10.144;2023-11-19T07:09:10;102065.97;;;9.16;100.00
75886;BME280;64561;44.018;10.144;2023-11-19T07:11:38;102083.75;;;9.49;100.00
75886;BME280;64561;44.018;10.144;2023-11-19T07:14:09;102083.88;;;9.52;100.00
75886;BME280;64561;44.018;10.144;2023-11-19T07:16:37;102089.28;;;9.40;100.00
75886;BME280;64561;44.018;10.144;2023-11-19T07:19:05;102105.41;;;9.39;100.00
75886;BME280;64561;44.018;10.144;2023-11-19T07:21:33;102110.59;;;9.41;100.00
75886;BME280;64561;44.018;10.144;2023-11-19T07:24:00;102119.97;;;9.42;100.00
75886;BME280;64561;44.018;10.144;2023-11-19T07:26:27;102122.38;;;9.38;100.00
75886;BME280;64561;44.018;10.144;2023-11-19T07:28:54;102130.28;;;9.43;100.00
75886;BME280;64561;44.018;10.144;2023-11-19T07:31:23;102127.84;;;9.45;100.00
75886;BME280;64561;44.018;10.144;2023-11-19T07:33:51;102122.78;;;9.46;100.00
75886;BME280;64561;44.018;10.144;2023-11-19T07:36:18;102117.78;;;9.48;100.00
75886;BME280;64561;44.018;10.144;2023-11-19T07:38:46;102122.22;;;9.52;100.00
75886;BME280;64561;44.018;10.144;2023-11-19T07:41:15;102115.66;;;9.57;100.00
75886;BME280;64561;44.018;10.144;2023-11-19T07:43:45;102114.31;;;9.65;100.00
75886;BME280;64561;44.018;10.144;2023-11-19T07:46:13;102120.63;;;9.72;100.00
75886;BME280;64561;44.018;10.144;2023-11-19T07:48:41;102120.03;;;9.77;100.00
75886;BME280;64561;44.018;10.144;2023-11-19T07:51:11;102124.22;;;9.93;100.00
75886;BME280;64561;44.018;10.144;2023-11-19T07:53:39;102121.81;;;9.96;100.00
75886;BME280;64561;44.018;10.144;2023-11-19T07:56:08;102127.06;;;9.99;100.00
75886;BME280;64561;44.018;10.144;2023-11-19T07:58:40;102128.66;;;9.97;100.00
75886;BME280;64561;44.018;10.144;2023-11-19T08:01:08;102115.97;;;9.99;100.00
75886;BME280;64561;44.018;10.144;2023-11-19T08:03:36;102121.09;;;9.99;100.00
75886;BME280;64561;44.018;10.144;2023-11-19T08:06:04;102121.09;;;9.99;100.00
75886;BME280;64561;44.018;10.144;2023-11-19T08:08:33;102119.41;;;9.99;100.00
75886;BME280;64561;44.018;10.144;2023-11-19T08:11:01;102108.94;;;9.95;100.00
75886;BME280;64561;44.018;10.144;2023-11-19T08:13:28;102100.31;;;9.93;100.00
75886;BME280;64561;44.018;10.144;2023-11-19T08:15:55;102101.34;;;9.96;100.00
75886;BME280;64561;44.018;10.144;2023-11-19T08:18:24;102089.72;;;10.03;100.00
75886;BME280;64561;44.018;10.144;2023-11-19T08:20:53;102088.25;;;10.08;100.00
75886;BME280;64561;44.018;10.144;2023-11-19T08:23:21;102081.59;;;10.12;100.00
75886;BME280;64561;44.018;10.144;2023-11-19T08:25:48;102084.44;;;10.18;100.00
75886;BME280;64561;44.018;10.144;2023-11-19T08:28:16;102079.47;;;10.21;100.00
75886;BME280;64561;44.018;10.144;2023-11-19T08:30:43;102077.22;;;10.27;100.00
75886;BME280;64561;44.018;10.144;2023-11-19T08:33:11;102081.88;;;10.36;100.00
75886;BME280;64561;44.018;10.144;2023-11-19T08:35:38;102082.88;;;10.39;100.00
75886;BME280;64561;44.018;10.144;2023-11-19T08:38:05;102083.03;;;10.42;100.00
75886;BME280;64561;44.018;10.144;2023-11-19T08:40:33;102084.16;;;10.49;100.00
75886;BME280;64561;44.018;10.144;2023-11-19T08:43:03;102075.69;;;10.50;100.00
75886;BME280;64561;44.018;10.144;2023-11-19T08:45:30;102077.50;;;10.52;100.00
75886;BME280;64561;44.018;10.144;2023-11-19T08:47:58;102081.28;;;10.61;100.00
75886;BME280;64561;44.018;10.144;2023-11-19T08:50:26;102085.25;;;10.73;100.00
75886;BME280;64561;44.018;10.144;2023-11-19T08:52:53;102078.47;;;10.74;100.00
75886;BME280;64561;44.018;10.144;2023-11-19T08:55:20;102073.34;;;10.74;100.00
75886;BME280;64561;44.018;10.144;2023-11-19T08:57:47;102075.00;;;10.73;100.00
75886;BME280;64561;44.018;10.144;2023-11-19T09:00:15;102082.56;;;10.90;100.00
75886;BME280;64561;44.018;10.144;2023-11-19T09:02:42;102076.34;;;11.04;100.00
75886;BME280;64561;44.018;10.144;2023-11-19T09:05:10;102081.81;;;10.92;100.00
75886;BME280;64561;44.018;10.144;2023-11-19T09:07:37;102071.19;;;10.83;100.00
75886;BME280;64561;44.018;10.144;2023-11-19T09:10:05;102063.28;;;10.79;100.00
75886;BME280;64561;44.018;10.144;2023-11-19T09:12:32;102069.78;;;10.91;100.00
75886;BME280;64561;44.018;10.144;2023-11-19T09:14:59;102078.81;;;11.03;100.00
75886;BME280;64561;44.018;10.144;2023-11-19T09:17:29;102076.94;;;10.98;100.00
75886;BME280;64561;44.018;10.144;2023-11-19T09:19:57;102074.91;;;10.91;100.00
75886;BME280;64561;44.018;10.144;2023-11-19T09:22:24;102068.94;;;10.91;100.00
75886;BME280;64561;44.018;10.144;2023-11-19T09:24:51;102076.81;;;10.95;100.00
75886;BME280;64561;44.018;10.144;2023-11-19T09:27:18;102079.78;;;11.05;100.00
75886;BME280;64561;44.018;10.144;2023-11-19T09:29:45;102068.69;;;11.06;100.00
75886;BME280;64561;44.018;10.144;2023-11-19T09:32:14;102064.28;;;11.02;100.00
75886;BME280;64561;44.018;10.144;2023-11-19T09:34:41;102069.53;;;11.05;100.00
75886;BME280;64561;44.018;10.144;2023-11-19T09:37:08;102069.09;;;11.15;100.00
75886;BME280;64561;44.018;10.144;2023-11-19T09:39:38;102076.19;;;11.22;100.00
75886;BME280;64561;44.018;10.144;2023-11-19T09:42:06;102072.72;;;11.20;100.00
75886;BME280;64561;44.018;10.144;2023-11-19T09:44:34;102069.91;;;11.14;100.00
75886;BME280;64561;44.018;10.144;2023-11-19T09:47:01;102075.19;;;11.18;100.00
75886;BME280;64561;44.018;10.144;2023-11-19T09:49:29;102083.09;;;11.23;100.00
75886;BME280;64561;44.018;10.144;2023-11-19T09:52:00;102076.41;;;11.27;100.00
75886;BME280;64561;44.018;10.144;2023-11-19T09:54:27;102078.16;;;11.28;100.00
75886;BME280;64561;44.018;10.144;2023-11-19T09:56:56;102078.22;;;11.29;100.00
75886;BME280;64561;44.018;10.144;2023-11-19T09:59:30;102070.28;;;11.23;100.00
75886;BME280;64561;44.018;10.144;2023-11-19T10:01:59;102072.84;;;11.23;100.00
75886;BME280;64561;44.018;10.144;2023-11-19T10:04:29;102076.16;;;11.20;100.00
75886;BME280;64561;44.018;10.144;2023-11-19T10:06:58;102072.78;;;11.21;100.00
75886;BME280;64561;44.018;10.144;2023-11-19T10:09:25;102083.09;;;11.23;100.00
75886;BME280;64561;44.018;10.144;2023-11-19T10:11:52;102073.38;;;11.16;100.00
75886;BME280;64561;44.018;10.144;2023-11-19T10:14:23;102069.16;;;11.16;100.00
75886;BME280;64561;44.018;10.144;2023-11-19T10:16:51;102071.03;;;11.20;100.00
75886;BME280;64561;44.018;10.144;2023-11-19T10:19:21;102075.53;;;11.26;100.00
75886;BME280;64561;44.018;10.144;2023-11-19T10:21:48;102066.28;;;11.30;100.00
75886;BME280;64561;44.018;10.144;2023-11-19T10:24:15;102064.72;;;11.33;100.00
75886;BME280;64561;44.018;10.144;2023-11-19T10:26:46;102066.59;;;11.37;100.00
75886;BME280;64561;44.018;10.144;2023-11-19T10:29:13;102058.84;;;11.36;100.00
75886;BME280;64561;44.018;10.144;2023-11-19T10:31:55;102064.03;;;11.37;100.00
75886;BME280;64561;44.018;10.144;2023-11-19T10:34:26;102060.28;;;11.29;100.00
75886;BME280;64561;44.018;10.144;2023-11-19T10:36:54;102053.47;;;11.30;100.00
75886;BME280;64561;44.018;10.144;2023-11-19T10:39:22;102057.97;;;11.35;100.00
75886;BME280;64561;44.018;10.144;2023-11-19T10:41:50;102059.03;;;11.40;100.00
75886;BME280;64561;44.018;10.144;2023-11-19T10:44:33;102051.47;;;11.43;100.00
75886;BME280;64561;44.018;10.144;2023-11-19T10:47:05;102050.81;;;11.49;100.00
75886;BME280;64561;44.018;10.144;2023-11-19T10:49:33;102055.28;;;11.53;100.00
75886;BME280;64561;44.018;10.144;2023-11-19T10:52:02;102047.50;;;11.52;100.00
75886;BME280;64561;44.018;10.144;2023-11-19T10:54:32;102039.69;;;11.49;100.00
75886;BME280;64561;44.018;10.144;2023-11-19T10:57:02;102043.97;;;11.48;100.00
75886;BME280;64561;44.018;10.144;2023-11-19T10:59:31;102036.09;;;11.43;100.00
75886;BME280;64561;44.018;10.144;2023-11-19T11:02:03;102048.47;;;11.54;100.00
75886;BME280;64561;44.018;10.144;2023-11-19T11:04:39;102041.94;;;11.62;100.00
75886;BME280;64561;44.018;10.144;2023-11-19T11:07:08;102037.38;;;11.55;100.00
75886;BME280;64561;44.018;10.144;2023-11-19T11:09:36;102033.81;;;11.51;100.00
75886;BME280;64561;44.018;10.144;2023-11-19T11:12:05;102032.13;;;11.52;100.00
75886;BME280;64561;44.018;10.144;2023-11-19T11:14:34;102031.47;;;11.56;100.00
75886;BME280;64561;44.018;10.144;2023-11-19T11:17:03;102024.91;;;11.64;100.00
75886;BME280;64561;44.018;10.144;2023-11-19T11:19:30;102024.38;;;11.71;100.00
75886;BME280;64561;44.018;10.144;2023-11-19T11:21:58;102018.53;;;11.75;100.00
75886;BME280;64561;44.018;10.144;2023-11-19T11:24:32;102008.50;;;11.81;100.00
75886;BME280;64561;44.018;10.144;2023-11-19T11:30:23;102006.88;;;11.83;100.00
75886;BME280;64561;44.018;10.144;2023-11-19T11:35:39;102000.50;;;11.95;100.00
75886;BME280;64561;44.018;10.144;2023-11-19T11:38:14;102000.13;;;12.08;100.00
75886;BME280;64561;44.018;10.144;2023-11-19T11:40:42;102007.41;;;12.20;100.00
75886;BME280;64561;44.018;10.144;2023-11-19T11:43:48;101997.34;;;12.26;100.00
75886;BME280;64561;44.018;10.144;2023-11-19T11:49:03;101997.47;;;12.29;100.00
75886;BME280;64561;44.018;10.144;2023-11-19T11:57:12;101997.63;;;12.33;100.00
75886;BME280;64561;44.018;10.144;2023-11-19T12:02:10;101979.81;;;12.38;100.00
75886;BME280;64561;44.018;10.144;2023-11-19T12:04:37;101984.19;;;12.41;100.00
75886;BME280;64561;44.018;10.144;2023-11-19T12:07:19;101979.31;;;12.48;100.00
75886;BME280;64561;44.018;10.144;2023-11-19T12:09:50;101976.75;;;12.48;100.00
75886;BME280;64561;44.018;10.144;2023-11-19T12:12:26;101971.69;;;12.50;100.00
75886;BME280;64561;44.018;10.144;2023-11-19T12:20:04;101958.94;;;12.53;100.00
75886;BME280;64561;44.018;10.144;2023-11-19T12:22:39;101961.44;;;12.51;100.00
75886;BME280;64561;44.018;10.144;2023-11-19T12:25:08;101958.88;;;12.51;100.00
75886;BME280;64561;44.018;10.144;2023-11-19T12:27:43;101952.09;;;12.53;100.00
75886;BME280;64561;44.018;10.144;2023-11-19T12:30:11;101952.06;;;12.52;100.00
75886;BME280;64561;44.018;10.144;2023-11-19T12:32:39;101940.09;;;12.52;100.00
75886;BME280;64561;44.018;10.144;2023-11-19T12:35:08;101934.13;;;12.53;100.00
75886;BME280;64561;44.018;10.144;2023-11-19T12:37:43;101935.88;;;12.54;100.00
75886;BME280;64561;44.018;10.144;2023-11-19T12:40:15;101919.66;;;12.55;100.00
75886;BME280;64561;44.018;10.144;2023-11-19T12:42:46;101911.88;;;12.52;100.00
75886;BME280;64561;44.018;10.144;2023-11-19T12:45:15;101914.38;;;12.51;100.00
75886;BME280;64561;44.018;10.144;2023-11-19T12:47:43;101915.41;;;12.56;100.00
75886;BME280;64561;44.018;10.144;2023-11-19T12:50:11;101919.66;;;12.55;100.00
75886;BME280;64561;44.018;10.144;2023-11-19T12:52:38;101912.19;;;12.63;100.00
75886;BME280;64561;44.018;10.144;2023-11-19T12:55:25;101907.97;;;12.64;100.00
75886;BME280;64561;44.018;10.144;2023-11-19T12:57:57;101904.66;;;12.68;100.00
75886;BME280;64561;44.018;10.144;2023-11-19T13:08:06;101908.22;;;12.46;100.00
75886;BME280;64561;44.018;10.144;2023-11-19T13:18:34;101928.66;;;12.43;100.00
75886;BME280;64561;44.018;10.144;2023-11-19T13:22:11;101926.03;;;12.41;100.00
75886;BME280;64561;44.018;10.144;2023-11-19T13:24:39;101926.44;;;12.28;100.00